East Quilcene, Washington
Current Conditions -  °F | °C
As of 4:55 AM on Friday 19 Dec 2014 (Local Time) from KPWT Reporting Station
Overcast Overcast  
Wind Chill: 41°   Ceiling: 1900
Heat Index: 45°   Visibility: 9mi
Dew Point: 45°   Wind: 7mph
Humidity: 100%   Direction: 200°SSW
Pressure: 29.85"   Gusts: NA
Location:  47.8412°N, 122.841°W
Report Text: KPWT 191255Z AUTO 20006KT 9SM BKN019 BKN024 OVC030 07/07 A2985 RMK AO1 P0012
Loading
Personal Weather Stations






























Interactive Weather Map New forecast layout! Learn more

10-Day Weather Forecast

Advertisements
Track Severe Weather on mobile